• Join FlightAware (Why Join?)
  • Login
  • US Flag 
08:12AM EDT


 

Airport Tracker/Info


-or-


 

Live Flight TrackerFlight Track Log ✈ SWA1586 ✈ 28-Apr-2013 ✈ KSLC - KDEN

Flight Track Log - Related Links

Times and Time Zones

All times are in EDT time to prevent confusion due to time zone crossing. See the SWA1586 flight status page for this flight to view local times or setup timezone preferences in your user account.

Time Position Orientation Groundspeed Altitude Reporting Facility
EDT Latitude Longitude Course Direction KTS MPH feet Rate Location/Type
09:57PM 40.8081 -111.9647 North 181 208 5,200  Level Salt Lake Center
09:58PM 40.8211 -111.9639 North 163 188 5,600 1,800 Climbing Salt Lake Center
09:59PM 40.8822 -111.9742 353° North 229 264 7,700 2,700 Climbing Salt Lake Center
10:00PM 40.9569 -111.9714 North 272 313 11,200 3,060 Climbing Salt Lake Center
10:01PM 40.9758 -111.8706 76° East 323 372 14,000 2,580 Climbing Salt Lake Center
10:02PM 40.9411 -111.7153 106° East 391 450 16,500 2,700 Climbing Salt Lake Center
10:03PM 40.9206 -111.5661 100° East 416 479 19,600 2,940 Climbing Salt Lake Center
10:04PM 40.9108 -111.4100 95° East 429 494 22,500 2,640 Climbing Salt Lake Center
10:05PM 40.8919 -111.2503 99° East 440 506 25,100 2,220 Climbing Salt Lake Center
10:06PM 40.8719 -111.0861 99° East 452 520 27,100 1,800 Climbing Salt Lake Center
10:07PM 40.8517 -110.9142 99° East 472 543 28,800 1,560 Climbing Salt Lake Center
10:08PM 40.8297 -110.7367 99° East 489 563 30,300 1,740 Climbing Salt Lake Center
10:09PM 40.8022 -110.5211 99° East 503 579 32,400 2,040 Climbing Salt Lake Center
10:10PM 40.7819 -110.3489 99° East 500 575 34,500 2,100 Climbing Salt Lake Center
10:11PM 40.7572 -110.1614 100° East 479 551 36,800 1,800 Climbing Salt Lake Center
10:12PM 40.7381 -109.9972 99° East 474 545 38,200 900 Climbing Salt Lake Center
10:13PM 40.7272 -109.8311 95° East 474 545 38,700 360 Climbing Salt Lake Center
10:14PM 40.7139 -109.6333 95° East 486 559 39,000 120 Climbing Salt Lake Center
10:15PM 40.6997 -109.4658 96° East 483 556 39,000  Level Salt Lake Center
10:16PM 40.6858 -109.2689 95° East 482 555 39,000  Level Salt Lake Center
10:17PM 40.6731 -109.1025 96° East 483 556 39,000  Level Salt Lake Center
10:18PM 40.6597 -108.9353 96° East 483 556 39,000  Level Salt Lake Center
10:19PM 40.6492 -108.7883 95° East 481 554 39,000  Level Denver Center
10:20PM 40.6325 -108.5906 96° East 483 556 39,000  Level Denver Center
10:21PM 40.6189 -108.4217 96° East 483 556 39,000  Level Denver Center
10:22PM 40.6042 -108.2517 96° East 486 559 39,000  Level Denver Center
10:23PM 40.5878 -108.0533 96° East 487 560 39,000  Level Denver Center
10:24PM 40.5725 -107.8864 97° East 483 556 39,000  Level Denver Center
10:25PM 40.5553 -107.6900 97° East 484 557 39,000  Level Denver Center
10:26PM 40.5403 -107.5217 97° East 484 557 39,000  Level Denver Center
10:27PM 40.5247 -107.3547 97° East 481 554 39,000  Level Denver Center
10:28PM 40.5117 -107.1586 95° East 482 555 39,000  Level Denver Center
10:29PM 40.5039 -106.9822 93° East 483 556 39,000  Level Denver Center
10:30PM 40.4936 -106.8069 94° East 480 552 39,000 -1,080 Level Denver Center
10:31PM 40.4831 -106.6331 95° East 477 549 36,900 -2,640 Descending Denver Center
10:32PM 40.4719 -106.4372 94° East 474 545 33,600 -3,000 Descending Denver Center
10:33PM 40.4617 -106.2669 94° East 485 558 30,800 -2,460 Descending Denver Center
10:34PM 40.4517 -106.0992 94° East 480 552 28,600 -2,640 Descending Denver Center
10:35PM 40.4364 -105.9297 97° East 467 537 25,500 -2,880 Descending Denver Center
10:36PM 40.4078 -105.7614 103° East 469 540 22,800 -2,760 Descending Denver Center
10:37PM 40.3833 -105.5992 101° East 452 520 19,900 -2,880 Descending Denver Center
10:38PM 40.3508 -105.4228 104° East 441 507 16,900 -2,100 Descending Denver Center
10:39PM 40.2828 -105.3203 131° Southeast 362 417 15,600 -1,200 Descending Denver Center
10:40PM 40.2253 -105.2311 130° Southeast 319 367 14,500 -1,320 Descending Denver Center
10:41PM 40.1492 -105.1761 151° Southeast 308 354 13,000 -780 Descending Denver Center
10:42PM 40.0733 -105.1728 178° South 277 319 13,000 -540 Level Denver Center
10:43PM 40.0092 -105.1297 153° Southeast 267 307 11,900 -1,440 Descending Denver Center
10:44PM 39.9456 -105.0717 145° Southeast 262 302 10,100 -1,620 Descending Denver Center
10:45PM 39.9097 -104.9869 119° Southeast 265 305 8,600 -1,080 Descending Denver Center
10:46PM 39.8761 -104.9117 120° Southeast 238 274 8,000 -840 Descending Denver Center
10:48PM 39.8422 -104.8369 121° Southeast 222 255 7,000 -960 Descending Denver Center
10:49PM 39.8411 -104.7753 91° East 171 197 6,100 -840 Descending Denver Center
10:50PM 39.8411 -104.7194 90° East 147 169 5,300 -840 Descending Denver Center
10:51PM 39.8500 -104.6667 North  Level FlightAware Approximate
10:58PM 39.8617 -104.6732 North  Level Estimated
10:59PM 39.8617 -104.6732 North  Level Estimated
11:00PM 39.8617 -104.6732 North  Level Estimated